Hauptseite
METAR-TAF:

METAR-TAF

Flughäfen :

Flughafen Dzaoudzi Pamandzi

Dzaoudzi, Mayotte

Breite: 12-48S, Länge: 045-17E, Höhe: 8 m

Beobachtung

Neuester Wetterbericht von vor 24 Minuten, um 14:30 UTC
Wind 3 kt aus Ost/Nordost
Temperatur 29°C
Luftfeuchtigkeit 84%
Luftdruck 1008 hPa
Sichtweite 10 km oder mehr

METAR: FMCZ 201430Z AUTO 06003KT 9999 ///TCU 29/26 Q1008 BECMG FEW020CB SCT025TCU

Zeit: 17:54 (14:54 UTC)

Prognose

Neuester Wetterbericht von vor 3 Stunden und 54 Minuten, um 11:00 UTC
Gültige Prognose vom 20 um 12 UTC bis 21 um 12 UTC
Wind 6 kt aus Nordwest
Sichtweite 10 km oder mehr
Leicht bewölkt in der Höhe von 2000 ft, Kumulonimbus.
Aufgelockert bewölkt in der Höhe von 2500 ft, Towering cumulus.
Wahrscheinlichkeit 30% :
Zeitweise
vom 21 um 08 UTC bis 21 um 11 UTC
Gewitter, Regen

TAF: FMCZ 201100Z 2012/2112 32006KT 9999 FEW020CB SCT025TCU PROB30 TEMPO 2108/2111 TSRA

Wetterbeobachtungen und Prognosen von mehr als 4000 Flughäfen (METAR und TAF Bericht).

Die verfügbaren Stationen werden durch gelbe und rote Markierungen auf der Karte dargestellt.

Führen Sie die Maus auf sie, um den Namen der Station zu sehen.

Darauf klicken, um die Beobachtung von Wetterbeobachtungen und Prognosen zu sehen.

Um die Karte zu ändern : klicken Sie auf den grünen Tasten mit einem schwarzen Kreuz Zum Vergrößern, auf den grünen Button mit einem Gedankenstrich zu verkleinern, oder auf die grünen Pfeile für benachbarte Karten.


METAR-TAF: